Inner Beacon (Inner Reciprocal Marker) automatic weather station will be offline from 30 April 2019 for several months while the supporting marine navigation infrastructure is replaced. During this time please access nearby wind observations from Brisbane Airport and Spitfire Channel.

Latest Weather Observations for Inner Beacon

IDQ60901

Issued at 2:01 pm EST Saturday 29 February 2020 (issued every 10 minutes, with the page automatically refreshed every 10 minutes)

About weather observations | Map of Brisbane area stations | Latest observations for Brisbane area | Other Formats
Station Details ID: 040926 Name: INNER RECIPROCAL MARKER Lat: -27.26 Lon: 153.24 Height: 10.0 m
Data from the previous 72 hours. | See also: Recent months at Inner Beacon
Date/Time
EST
Temp
°C
App
Temp
°C
Dew
Point
°C
Rel
Hum
%
Delta-T
°C
Wind Press
QNH
hPa
Press
MSL
hPa
Rain since
9am
mm
Dir  Spd
km/h
Gust
km/h
Spd
kts
Gust
kts
29/02:00pm - - - - - SE 24 30 13 16 - - -
29/01:30pm - - - - - SE 24 33 13 18 - - -
29/01:00pm - - - - - SE 24 30 13 16 - - -
29/12:30pm - - - - - SE 24 28 13 15 - - -
29/12:00pm - - - - - SE 24 28 13 15 - - -
29/11:30am - - - - - SE 26 30 14 16 - - -
29/11:00am - - - - - SSE 24 30 13 16 - - -
29/10:30am - - - - - SSE 26 30 14 16 - - -
29/10:00am - - - - - SSE 28 32 15 17 - - -
29/09:30am - - - - - SSE 28 33 15 18 - - -
29/09:00am - - - - - SSE 28 32 15 17 - - -
29/08:30am - - - - - SSE 28 35 15 19 - - -
29/08:00am - - - - - SSE 20 26 11 14 - - -
29/07:30am - - - - - SSE 20 24 11 13 - - -
29/07:00am - - - - - S 20 24 11 13 - - -
29/06:30am - - - - - SSE 28 35 15 19 - - -
29/06:00am - - - - - SSE 28 35 15 19 - - -
29/05:30am - - - - - SSE 28 32 15 17 - - -
29/05:00am - - - - - SSE 28 32 15 17 - - -
29/04:30am - - - - - SSE 28 33 15 18 - - -
29/04:00am - - - - - SSE 33 41 18 22 - - -
29/03:30am - - - - - SSE 26 30 14 16 - - -
29/03:00am - - - - - S 28 33 15 18 - - -
29/02:30am - - - - - S 26 32 14 17 - - -
29/02:00am - - - - - S 24 28 13 15 - - -
29/01:30am - - - - - S 24 28 13 15 - - -
29/01:00am - - - - - S 24 30 13 16 - - -
29/12:30am - - - - - SSE 24 28 13 15 - - -
29/12:00am - - - - - SE 20 24 11 13 - - -
 
Date/Time
EST
Temp
°C
App
Temp
°C
Dew
Point
°C
Rel
Hum
%
Delta-T
°C
Wind Press
QNH
hPa
Press
MSL
hPa
Rain since
9am
mm
Dir  Spd
km/h
Gust
km/h
Spd
kts
Gust
kts
28/11:30pm - - - - - SE 17 20 9 11 - - -
28/11:00pm - - - - - SE 20 24 11 13 - - -
28/10:30pm - - - - - SE 20 24 11 13 - - -
28/10:00pm - - - - - SE 20 24 11 13 - - -
28/09:30pm - - - - - SE 19 22 10 12 - - -
28/09:00pm - - - - - SE 17 20 9 11 - - -
28/08:30pm - - - - - SE 17 22 9 12 - - -
28/08:00pm - - - - - SE 15 19 8 10 - - -
28/07:30pm - - - - - E 13 19 7 10 - - -
28/07:00pm - - - - - ESE 17 22 9 12 - - -
28/06:30pm - - - - - ESE 19 22 10 12 - - -
28/06:00pm - - - - - E 15 22 8 12 - - -
28/05:30pm - - - - - E 15 22 8 12 - - -
28/05:00pm - - - - - E 17 22 9 12 - - -
28/04:30pm - - - - - E 17 22 9 12 - - -
28/04:00pm - - - - - E 22 26 12 14 - - -
28/03:30pm - - - - - E 20 24 11 13 - - -
28/03:00pm - - - - - E 19 24 10 13 - - -
28/02:30pm - - - - - E 19 22 10 12 - - -
28/02:00pm - - - - - E 11 15 6 8 - - -
28/01:30pm - - - - - E 7 13 4 7 - - -
28/01:00pm - - - - - E 6 7 3 4 - - -
28/12:30pm - - - - - E 6 7 3 4 - - -
28/12:00pm - - - - - E 4 6 2 3 - - -
28/11:30am - - - - - SE 4 6 2 3 - - -
28/11:00am - - - - - SE 6 7 3 4 - - -
28/10:30am - - - - - SE 6 7 3 4 - - -
28/10:00am - - - - - SSE 6 6 3 3 - - -
28/09:30am - - - - - SE 7 9 4 5 - - -
28/09:00am - - - - - SSE 9 11 5 6 - - -
28/08:30am - - - - - S 9 13 5 7 - - -
28/08:00am - - - - - S 13 15 7 8 - - -
28/07:30am - - - - - SSW 13 17 7 9 - - -
28/07:00am - - - - - SW 17 19 9 10 - - -
28/06:30am - - - - - SSW 15 19 8 10 - - -
28/06:00am - - - - - SSW 17 19 9 10 - - -
28/05:30am - - - - - S 19 20 10 11 - - -
28/05:00am - - - - - SSW 17 19 9 10 - - -
28/04:30am - - - - - SSW 15 17 8 9 - - -
28/04:00am - - - - - SSW 19 20 10 11 - - -
28/03:30am - - - - - S 13 15 7 8 - - -
28/03:00am - - - - - S 17 19 9 10 - - -
28/02:30am - - - - - SSW 15 19 8 10 - - -
28/02:00am - - - - - S 11 13 6 7 - - -
28/01:30am - - - - - SSW 11 15 6 8 - - -
28/01:00am - - - - - SSW 9 13 5 7 - - -
28/12:30am - - - - - S 11 13 6 7 - - -
28/12:00am - - - - - S 11 15 6 8 - - -
 
Date/Time
EST
Temp
°C
App
Temp
°C
Dew
Point
°C
Rel
Hum
%
Delta-T
°C
Wind Press
QNH
hPa
Press
MSL
hPa
Rain since
9am
mm
Dir  Spd
km/h
Gust
km/h
Spd
kts
Gust
kts
27/11:30pm - - - - - SSW 4 9 2 5 - - -
27/11:00pm - - - - - CALM 0 0 0 0 - - -
27/10:30pm - - - - - CALM 0 0 0 0 - - -
27/10:00pm - - - - - NW 4 6 2 3 - - -
27/09:30pm - - - - - N 7 9 4 5 - - -
27/09:00pm - - - - - CALM 0 0 0 0 - - -
27/08:30pm - - - - - CALM 0 4 0 2 - - -
27/08:00pm - - - - - NNE 4 9 2 5 - - -
27/07:30pm - - - - - CALM 0 7 0 4 - - -
27/07:00pm - - - - - NE 9 11 5 6 - - -
27/06:30pm - - - - - E 11 15 6 8 - - -
27/06:00pm - - - - - E 11 17 6 9 - - -
27/05:30pm - - - - - E 19 24 10 13 - - -
27/05:00pm - - - - - E 17 22 9 12 - - -
27/04:30pm - - - - - ESE 17 24 9 13 - - -
27/04:00pm - - - - - ESE 13 19 7 10 - - -
27/03:30pm - - - - - ESE 15 20 8 11 - - -
27/03:00pm - - - - - ESE 15 20 8 11 - - -
27/02:30pm - - - - - E 20 30 11 16 - - -
27/02:00pm - - - - - E 22 28 12 15 - - -
27/01:30pm - - - - - ENE 24 32 13 17 - - -
27/01:00pm - - - - - E 17 24 9 13 - - -
27/12:30pm - - - - - NNE 26 30 14 16 - - -
27/12:00pm - - - - - NNE 22 24 12 13 - - -
27/11:30am - - - - - N 19 22 10 12 - - -
27/11:00am - - - - - N 22 28 12 15 - - -
27/10:30am - - - - - N 20 22 11 12 - - -
27/10:00am - - - - - N 15 17 8 9 - - -
27/09:30am - - - - - N 6 7 3 4 - - -
27/09:00am - - - - - NNW 6 6 3 3 - - -
27/08:30am - - - - - W 2 6 1 3 - - -
27/08:00am - - - - - CALM 0 0 0 0 - - -
27/07:30am - - - - - NW 4 6 2 3 - - -
27/07:00am - - - - - CALM 0 0 0 0 - - -
27/06:30am - - - - - NW 4 6 2 3 - - -
27/06:00am - - - - - NNW 7 11 4 6 - - -
27/05:30am - - - - - N 13 17 7 9 - - -
27/05:00am - - - - - NNE 13 17 7 9 - - -
27/04:30am - - - - - E 17 19 9 10 - - -
27/04:00am - - - - - E 17 22 9 12 - - -
27/03:30am - - - - - ESE 24 33 13 18 - - -
27/03:26am - - - - - E 17 32 9 17 - - -
27/03:00am - - - - - E 6 9 3 5 - - -
27/02:30am - - - - - ENE 6 7 3 4 - - -
27/02:00am - - - - - CALM 0 0 0 0 - - -
27/01:30am - - - - - NNW 6 7 3 4 - - -
27/01:00am - - - - - NNW 7 9 4 5 - - -
27/12:30am - - - - - W 7 7 4 4 - - -
27/12:00am - - - - - WNW 7 11 4 6 - - -
 
Date/Time
EST
Temp
°C
App
Temp
°C
Dew
Point
°C
Rel
Hum
%
Delta-T
°C
Wind Press
QNH
hPa
Press
MSL
hPa
Rain since
9am
mm
Dir  Spd
km/h
Gust
km/h
Spd
kts
Gust
kts
26/11:30pm - - - - - WNW 9 11 5 6 - - -
26/11:00pm - - - - - WNW 6 6 3 3 - - -
26/10:30pm - - - - - NW 7 7 4 4 - - -
26/10:00pm - - - - - NNW 9 11 5 6 - - -
26/09:30pm - - - - - N 13 17 7 9 - - -
26/09:00pm - - - - - N 15 17 8 9 - - -
26/08:30pm - - - - - N 15 19 8 10 - - -
26/08:00pm - - - - - NNE 22 24 12 13 - - -
26/07:30pm - - - - - NNE 22 24 12 13 - - -
26/07:00pm - - - - - N 20 24 11 13 - - -
26/06:30pm - - - - - NNE 17 20 9 11 - - -
26/06:00pm - - - - - NE 19 20 10 11 - - -
26/05:30pm - - - - - ENE 15 19 8 10 - - -
26/05:00pm - - - - - ENE 15 17 8 9 - - -
26/04:30pm - - - - - ENE 11 17 6 9 - - -
26/04:00pm - - - - - ENE 20 24 11 13 - - -
26/03:30pm - - - - - E 20 24 11 13 - - -
26/03:00pm - - - - - ENE 6 7 3 4 - - -
26/02:30pm - - - - - NE 7 9 4 5 - - -

Latest Capital City Observations: Canberra | Sydney | Melbourne | Brisbane | Adelaide | Perth | Hobart | Darwin

Other formats

Comma delimited format used in spreadsheet applications
http://www.bom.gov.au/fwo/IDQ60901/IDQ60901.94590.axf

JavaScript Object Notation format (JSON) in row-major order
http://www.bom.gov.au/fwo/IDQ60901/IDQ60901.94590.json

Data quality

Most of these data are generated automatically and are frequently updated. Quality checks on data are not normally performed. It is possible for incorrect values to appear. Refer to information at About Latest Weather Observations and please check the disclaimer before using these data.